CheckWX is a tool to help pilots better visualize weather data.  It is not intended as a substitute for an official pre-flight weather briefing.

07:11:32 UTC

KSYN METAR
Stanton Airfield Airport
Stanton, Minnesota, USA
Current

1 hour ago

KSYN 260559Z AUTO 00000KT 10SM CLR 11/08 A3000 RMK AO2 LTG DSNT S
Observed
May-26 @ 05:59 UTC
Visibility
10 SM
Flight Rules
VFR
Cloud Levels
  • Clear skies
Temperature
11°C / 52°F
Dewpoint
C / 46°F
Humidity
82%
Altimeter
30" Hg
Pressure
1015.92 hPa
Previous

2 hours ago

KSYN 260459Z AUTO 23003KT 10SM CLR 12/08 A3000 RMK AO2
Observed
May-26 @ 04:59 UTC
Wind
  • 230° at 3 KTS
Visibility
10 SM
Flight Rules
VFR
Cloud Levels
  • Clear skies
Temperature
12°C / 54°F
Dewpoint
C / 46°F
Humidity
77%
Altimeter
30" Hg
Pressure
1015.92 hPa
Previous

3 hours ago

KSYN 260359Z AUTO 23003KT 10SM CLR 12/09 A2999 RMK AO2
Observed
May-26 @ 03:59 UTC
Wind
  • 230° at 3 KTS
Visibility
10 SM
Flight Rules
VFR
Cloud Levels
  • Clear skies
Temperature
12°C / 54°F
Dewpoint
C / 48°F
Humidity
82%
Altimeter
29.99" Hg
Pressure
1015.62 hPa